createdAt,value
2022-09-11T00:04:45.836Z,15.10
2022-09-11T00:07:13.023Z,15.20
2022-09-11T00:09:40.304Z,15.20
2022-09-11T00:12:07.769Z,15.20
2022-09-11T00:14:35.601Z,15.20
2022-09-11T00:17:02.856Z,15.20
2022-09-11T00:19:30.351Z,15.20
2022-09-11T00:26:57.596Z,15.00
2022-09-11T00:29:24.706Z,15.10
2022-09-11T00:31:51.980Z,15.00
2022-09-11T00:34:19.244Z,15.00
2022-09-11T00:36:47.831Z,15.00
2022-09-11T00:39:15.506Z,14.90
2022-09-11T00:41:45.706Z,14.80
2022-09-11T00:50:08.664Z,14.90
2022-09-11T00:52:41.894Z,14.80
2022-09-11T00:55:14.042Z,14.80
2022-09-11T00:57:45.403Z,14.80
2022-09-11T01:00:13.822Z,14.90
2022-09-11T01:02:44.636Z,15.10
2022-09-11T01:05:13.513Z,15.00
2022-09-11T01:10:29.778Z,15.10
2022-09-11T01:13:09.042Z,15.10
2022-09-11T01:15:44.975Z,15.20
2022-09-11T01:18:19.505Z,15.10
2022-09-11T01:21:03.933Z,15.10
2022-09-11T01:23:57.455Z,15.10
2022-09-11T01:31:37.232Z,15.30
2022-09-11T01:34:09.986Z,15.30
2022-09-11T01:36:45.102Z,15.20
2022-09-11T01:39:14.045Z,15.20
2022-09-11T01:41:48.055Z,15.30
2022-09-11T01:44:18.534Z,15.30
2022-09-11T01:46:49.978Z,15.30
2022-09-11T01:54:22.524Z,15.30
2022-09-11T01:56:53.492Z,15.30
2022-09-11T01:59:27.382Z,15.30
2022-09-11T02:02:00.863Z,15.10
2022-09-11T02:04:33.733Z,15.10
2022-09-11T02:07:05.873Z,15.20
2022-09-11T02:09:40.782Z,15.10
2022-09-11T02:17:21.812Z,14.90
2022-09-11T02:19:50.392Z,14.80
2022-09-11T02:22:18.052Z,14.80
2022-09-11T02:24:45.267Z,14.90
2022-09-11T02:27:17.785Z,15.00
2022-09-11T02:29:46.532Z,14.90
2022-09-11T02:32:14.866Z,14.90
2022-09-11T02:42:46.915Z,14.80
2022-09-11T02:45:27.889Z,15.00
2022-09-11T02:48:05.384Z,14.90
2022-09-11T02:50:43.842Z,14.90
2022-09-11T02:53:14.493Z,14.80
2022-09-11T02:55:53.023Z,14.80
2022-09-11T03:01:29.064Z,14.70
2022-09-11T03:03:56.335Z,14.70
2022-09-11T03:06:26.724Z,14.70
2022-09-11T03:08:53.984Z,14.70
2022-09-11T03:11:21.294Z,14.70
2022-09-11T03:13:48.592Z,14.60
2022-09-11T03:16:16.027Z,14.60
2022-09-11T03:23:13.154Z,14.60
2022-09-11T03:25:41.005Z,14.60
2022-09-11T03:28:08.305Z,14.50
2022-09-11T03:30:35.852Z,14.50
2022-09-11T03:33:03.674Z,14.50
2022-09-11T03:35:30.942Z,14.50
2022-09-11T03:37:58.272Z,14.50
2022-09-11T03:40:27.793Z,14.50
2022-09-11T03:47:54.954Z,14.50
2022-09-11T03:50:21.923Z,14.30
2022-09-11T03:52:49.863Z,14.40
2022-09-11T03:55:17.384Z,14.30
2022-09-11T03:57:44.294Z,14.30
2022-09-11T04:00:12.956Z,14.40
2022-09-11T04:02:41.602Z,14.30
2022-09-11T04:10:13.934Z,14.30
2022-09-11T04:12:41.495Z,14.30
2022-09-11T04:15:10.596Z,14.40
2022-09-11T04:17:38.535Z,14.50
2022-09-11T04:20:07.630Z,14.60
2022-09-11T04:22:40.562Z,14.80
2022-09-11T04:25:08.811Z,14.70
2022-09-11T04:33:27.562Z,14.80
2022-09-11T04:35:55.054Z,14.80
2022-09-11T04:38:23.382Z,14.90
2022-09-11T04:40:52.535Z,14.90
2022-09-11T04:43:20.334Z,14.80
2022-09-11T04:45:47.525Z,14.80
2022-09-11T04:48:14.814Z,14.70
2022-09-11T04:50:43.725Z,14.70
2022-09-11T04:56:12.990Z,14.60
2022-09-11T04:58:40.996Z,14.50
2022-09-11T05:01:09.721Z,14.50
2022-09-11T05:03:37.415Z,14.50
2022-09-11T05:06:08.323Z,14.50
2022-09-11T05:08:36.264Z,14.50
2022-09-11T05:11:05.051Z,14.40
2022-09-11T05:13:36.423Z,14.40
2022-09-11T05:21:05.912Z,14.40
2022-09-11T05:23:33.970Z,14.60
2022-09-11T05:26:02.812Z,14.50
2022-09-11T05:28:31.414Z,14.60
2022-09-11T05:30:59.495Z,14.40
2022-09-11T05:33:28.391Z,14.50
2022-09-11T05:36:02.873Z,14.70
2022-09-11T05:38:31.995Z,14.70
2022-09-11T05:46:12.883Z,14.70
2022-09-11T05:48:40.503Z,14.90
2022-09-11T05:51:10.365Z,15.00
2022-09-11T05:53:38.381Z,15.10
2022-09-11T05:56:09.912Z,15.30
2022-09-11T05:58:37.449Z,15.30
2022-09-11T06:01:07.819Z,15.20
2022-09-11T06:03:37.222Z,15.30
2022-09-11T06:09:17.965Z,15.20
2022-09-11T06:11:45.251Z,15.30
2022-09-11T06:14:12.975Z,15.20
2022-09-11T06:16:40.454Z,15.10
2022-09-11T06:19:07.712Z,15.10
2022-09-11T06:21:35.214Z,15.20
2022-09-11T06:24:03.049Z,15.20
2022-09-11T06:31:35.080Z,15.40
2022-09-11T06:34:03.655Z,15.50
2022-09-11T06:36:31.094Z,15.30
2022-09-11T06:38:59.082Z,15.60
2022-09-11T06:41:31.302Z,15.60
2022-09-11T06:43:58.464Z,15.70
2022-09-11T06:46:26.424Z,15.70
2022-09-11T06:53:57.484Z,15.80
2022-09-11T06:56:25.704Z,16.00
2022-09-11T06:58:53.255Z,16.10
2022-09-11T07:01:22.057Z,16.10
2022-09-11T07:03:50.926Z,16.20
2022-09-11T07:06:20.102Z,16.30
2022-09-11T07:08:52.284Z,16.60
2022-09-11T07:16:22.838Z,16.50
2022-09-11T07:18:50.697Z,16.60
2022-09-11T07:21:21.134Z,16.50
2022-09-11T07:23:50.745Z,16.60
2022-09-11T07:26:19.685Z,16.80
2022-09-11T07:28:48.264Z,17.00
2022-09-11T07:31:20.848Z,17.00
2022-09-11T07:34:05.886Z,16.70
2022-09-11T07:41:38.534Z,16.60
2022-09-11T07:44:06.606Z,16.50
2022-09-11T07:46:35.537Z,16.60
2022-09-11T07:49:02.896Z,16.80
2022-09-11T07:51:30.172Z,16.90
2022-09-11T07:53:59.642Z,16.90
2022-09-11T07:56:27.717Z,17.00
2022-09-11T08:04:00.623Z,17.10
2022-09-11T08:06:30.073Z,17.10
2022-09-11T08:09:01.362Z,16.80
2022-09-11T08:11:29.833Z,17.20
2022-09-11T08:13:57.342Z,17.20
2022-09-11T08:16:26.940Z,17.50
2022-09-11T08:18:55.038Z,17.60
2022-09-11T08:26:28.102Z,18.20
2022-09-11T08:28:58.184Z,18.30
2022-09-11T08:31:26.961Z,18.30
2022-09-11T08:33:54.737Z,18.20
2022-09-11T08:36:22.926Z,17.80
2022-09-11T08:38:51.325Z,17.60
2022-09-11T08:41:41.100Z,17.80
2022-09-11T08:49:19.773Z,17.80
2022-09-11T08:51:49.412Z,18.40
2022-09-11T08:54:27.014Z,18.50
2022-09-11T08:57:00.859Z,18.50
2022-09-11T08:59:41.634Z,18.60
2022-09-11T09:02:25.645Z,18.60
2022-09-11T09:05:16.088Z,18.40
2022-09-11T09:12:57.981Z,18.30
2022-09-11T09:15:38.735Z,18.40
2022-09-11T09:18:27.776Z,18.80
2022-09-11T09:21:09.775Z,18.70
2022-09-11T09:23:44.919Z,19.20
2022-09-11T09:26:27.922Z,19.30
2022-09-11T09:29:03.995Z,19.40
2022-09-11T09:35:31.224Z,19.30
2022-09-11T09:37:59.339Z,19.50
2022-09-11T09:40:31.818Z,19.50
2022-09-11T09:43:14.534Z,19.50
2022-09-11T09:45:59.217Z,19.60
2022-09-11T09:48:27.225Z,19.70
2022-09-11T09:53:42.769Z,19.40
2022-09-11T09:56:16.389Z,19.40
2022-09-11T09:58:55.975Z,19.50
2022-09-11T10:01:47.242Z,19.70
2022-09-11T10:04:18.143Z,19.40
2022-09-11T10:06:47.115Z,19.20
2022-09-11T10:09:28.424Z,19.50
2022-09-11T10:17:03.711Z,20.00
2022-09-11T10:19:42.708Z,19.70
2022-09-11T10:22:32.883Z,19.90
2022-09-11T10:25:07.143Z,20.10
2022-09-11T10:27:39.944Z,20.30
2022-09-11T10:30:26.304Z,19.70
2022-09-11T10:33:02.611Z,20.10
2022-09-11T10:43:02.245Z,20.20
2022-09-11T10:45:31.243Z,20.60
2022-09-11T10:48:19.248Z,19.90
2022-09-11T10:50:48.388Z,19.90
2022-09-11T10:53:21.309Z,20.50
2022-09-11T10:55:56.781Z,20.70
2022-09-11T11:06:40.650Z,20.50
2022-09-11T11:09:32.879Z,20.70
2022-09-11T11:12:14.460Z,20.60
2022-09-11T11:15:00.658Z,19.90
2022-09-11T11:17:44.483Z,19.90
2022-09-11T11:20:25.109Z,20.10
2022-09-11T11:28:16.503Z,20.50
2022-09-11T11:30:58.711Z,20.50
2022-09-11T11:33:50.906Z,20.30
2022-09-11T11:36:29.828Z,20.30
2022-09-11T11:39:04.522Z,20.40
2022-09-11T11:41:38.518Z,20.30
2022-09-11T11:50:32.181Z,20.20
2022-09-11T11:53:12.161Z,20.70
2022-09-11T11:55:49.780Z,20.50
2022-09-11T11:58:31.598Z,20.60
2022-09-11T12:01:12.112Z,20.60
2022-09-11T12:03:50.804Z,20.40
2022-09-11T12:12:18.570Z,20.90
2022-09-11T12:14:52.549Z,21.20
2022-09-11T12:17:28.401Z,21.30
2022-09-11T12:20:31.553Z,21.20
2022-09-11T12:23:01.708Z,21.40
2022-09-11T12:25:54.072Z,21.50
2022-09-11T12:36:11.400Z,21.50
2022-09-11T12:38:45.591Z,21.00
2022-09-11T12:41:17.758Z,20.60
2022-09-11T12:43:48.885Z,20.60
2022-09-11T12:46:56.300Z,20.60
2022-09-11T12:49:28.811Z,20.60
2022-09-11T12:52:09.000Z,20.60
2022-09-11T12:59:45.020Z,20.40
2022-09-11T13:02:28.164Z,20.20
2022-09-11T13:05:04.199Z,20.50
2022-09-11T13:07:41.511Z,20.90
2022-09-11T13:10:23.838Z,20.70
2022-09-11T13:12:59.159Z,20.80
2022-09-11T13:18:31.155Z,21.00
2022-09-11T13:21:04.111Z,20.80
2022-09-11T13:23:36.685Z,20.70
2022-09-11T13:26:11.089Z,20.40
2022-09-11T13:28:47.200Z,20.50
2022-09-11T13:31:21.043Z,20.80
2022-09-11T13:34:09.921Z,20.50
2022-09-11T13:40:53.028Z,20.20
2022-09-11T13:43:30.512Z,20.50
2022-09-11T13:46:17.183Z,20.90
2022-09-11T13:48:51.032Z,20.90
2022-09-11T13:51:24.351Z,21.20
2022-09-11T13:54:08.788Z,21.00
2022-09-11T14:04:19.669Z,20.80
2022-09-11T14:06:58.057Z,20.60
2022-09-11T14:09:27.591Z,20.50
2022-09-11T14:12:11.120Z,20.50
2022-09-11T14:14:47.566Z,20.30
2022-09-11T14:17:22.133Z,20.40
2022-09-11T14:20:01.000Z,20.50
2022-09-11T14:27:48.770Z,20.70
2022-09-11T14:30:38.792Z,20.70
2022-09-11T14:33:18.507Z,20.80
2022-09-11T14:35:50.097Z,20.80
2022-09-11T14:38:24.610Z,21.20
2022-09-11T14:41:02.717Z,21.10
2022-09-11T14:43:37.170Z,21.00
2022-09-11T14:51:13.240Z,21.30
2022-09-11T14:53:46.865Z,21.20
2022-09-11T14:56:18.919Z,21.20
2022-09-11T14:58:49.079Z,21.10
2022-09-11T15:01:18.871Z,21.20
2022-09-11T15:03:48.324Z,21.00
2022-09-11T15:06:24.345Z,21.10
2022-09-11T15:14:14.371Z,21.60
2022-09-11T15:16:45.887Z,21.80
2022-09-11T15:19:21.577Z,21.80
2022-09-11T15:21:58.154Z,21.70
2022-09-11T15:24:40.060Z,21.60
2022-09-11T15:27:30.209Z,21.90
2022-09-11T15:35:19.290Z,21.50
2022-09-11T15:37:51.398Z,21.60
2022-09-11T15:40:22.445Z,21.10
2022-09-11T15:42:54.526Z,21.40
2022-09-11T15:45:25.754Z,21.50
2022-09-11T15:48:00.070Z,21.30
2022-09-11T15:50:36.490Z,21.60
2022-09-11T15:58:25.455Z,21.60
2022-09-11T16:00:56.258Z,21.60
2022-09-11T16:03:28.859Z,21.50
2022-09-11T16:06:06.119Z,21.60
2022-09-11T16:08:35.917Z,21.60
2022-09-11T16:11:09.719Z,21.60
2022-09-11T16:21:24.995Z,21.40
2022-09-11T16:24:01.750Z,21.70
2022-09-11T16:26:39.809Z,21.80
2022-09-11T16:29:13.927Z,21.80
2022-09-11T16:31:45.320Z,21.60
2022-09-11T16:34:14.880Z,21.40
2022-09-11T16:39:29.357Z,21.50
2022-09-11T16:42:03.527Z,21.50
2022-09-11T16:44:34.840Z,21.30
2022-09-11T16:47:06.756Z,21.50
2022-09-11T16:50:05.442Z,21.70
2022-09-11T16:52:26.848Z,21.90
2022-09-11T16:57:43.827Z,21.70
2022-09-11T17:00:16.679Z,21.60
2022-09-11T17:02:48.557Z,21.40
2022-09-11T17:05:23.958Z,21.10
2022-09-11T17:08:05.849Z,20.90
2022-09-11T17:10:43.289Z,20.90
2022-09-11T17:19:08.588Z,21.10
2022-09-11T17:21:40.599Z,20.90
2022-09-11T17:24:13.177Z,20.90
2022-09-11T17:26:44.960Z,20.80
2022-09-11T17:29:14.210Z,20.90
2022-09-11T17:31:43.165Z,21.00
2022-09-11T17:34:18.318Z,21.00
2022-09-11T17:39:29.859Z,20.90
2022-09-11T17:41:57.931Z,20.70
2022-09-11T17:44:31.503Z,20.60
2022-09-11T17:47:02.223Z,20.60
2022-09-11T17:49:36.255Z,20.70
2022-09-11T17:52:10.583Z,20.70
2022-09-11T17:54:46.031Z,20.60
2022-09-11T17:59:58.953Z,20.70
2022-09-11T18:02:35.383Z,20.70
2022-09-11T18:05:16.828Z,20.70
2022-09-11T18:07:48.820Z,20.50
2022-09-11T18:10:24.414Z,20.50
2022-09-11T18:12:59.653Z,20.50
2022-09-11T18:15:34.151Z,20.40
2022-09-11T18:18:13.861Z,20.40
2022-09-11T18:27:55.811Z,20.30
2022-09-11T18:30:25.651Z,20.20
2022-09-11T18:32:56.702Z,20.20
2022-09-11T18:35:34.183Z,20.20
2022-09-11T18:38:07.011Z,20.20
2022-09-11T18:40:40.704Z,20.10
2022-09-11T18:43:16.743Z,20.10
2022-09-11T18:50:48.714Z,20.10
2022-09-11T18:53:24.253Z,20.00
2022-09-11T18:56:03.133Z,19.90
2022-09-11T18:58:35.614Z,19.90
2022-09-11T19:01:09.742Z,19.90
2022-09-11T19:03:40.677Z,19.90
2022-09-11T19:06:17.892Z,19.90
2022-09-11T19:14:23.133Z,19.80
2022-09-11T19:16:56.229Z,19.70
2022-09-11T19:19:26.813Z,19.70
2022-09-11T19:22:00.327Z,19.70
2022-09-11T19:24:31.503Z,19.80
2022-09-11T19:27:01.091Z,19.70
2022-09-11T19:29:35.219Z,19.60
2022-09-11T19:36:42.741Z,19.60
2022-09-11T19:39:17.222Z,19.50
2022-09-11T19:41:49.883Z,19.60
2022-09-11T19:44:22.692Z,19.60
2022-09-11T19:47:01.173Z,19.50
2022-09-11T19:49:31.851Z,19.40
2022-09-11T19:52:06.532Z,19.40
2022-09-11T20:02:36.934Z,19.40
2022-09-11T20:05:06.621Z,19.40
2022-09-11T20:07:41.155Z,19.30
2022-09-11T20:10:24.173Z,19.30
2022-09-11T20:12:52.683Z,19.20
2022-09-11T20:15:21.661Z,19.10
2022-09-11T20:17:54.544Z,19.10
2022-09-11T20:23:03.221Z,19.10
2022-09-11T20:25:32.538Z,19.10
2022-09-11T20:28:02.268Z,19.00
2022-09-11T20:30:32.719Z,19.00
2022-09-11T20:33:00.735Z,19.00
2022-09-11T20:35:28.468Z,19.00
2022-09-11T20:37:56.428Z,19.00
2022-09-11T20:44:49.303Z,18.90
2022-09-11T20:47:18.240Z,19.00
2022-09-11T20:49:47.305Z,18.90
2022-09-11T20:52:16.358Z,18.80
2022-09-11T20:54:45.940Z,18.80
2022-09-11T20:57:18.079Z,18.80
2022-09-11T20:59:47.047Z,18.80
2022-09-11T21:02:16.097Z,18.80
2022-09-11T21:09:50.090Z,18.80
2022-09-11T21:12:18.747Z,18.90
2022-09-11T21:14:46.577Z,18.80
2022-09-11T21:17:14.459Z,18.80
2022-09-11T21:19:43.938Z,18.70
2022-09-11T21:22:12.808Z,18.80
2022-09-11T21:24:42.838Z,18.90
2022-09-11T21:27:11.888Z,18.80
2022-09-11T21:34:46.345Z,18.70
2022-09-11T21:37:14.058Z,18.60
2022-09-11T21:39:41.745Z,18.60
2022-09-11T21:42:11.992Z,18.60
2022-09-11T21:44:40.257Z,18.60
2022-09-11T21:47:08.539Z,18.60
2022-09-11T21:49:36.167Z,18.50
2022-09-11T21:52:05.832Z,18.50
2022-09-11T21:59:39.178Z,18.50
2022-09-11T22:02:07.177Z,18.60
2022-09-11T22:04:35.189Z,18.60
2022-09-11T22:07:02.638Z,18.40
2022-09-11T22:09:30.137Z,18.40
2022-09-11T22:11:59.996Z,18.40
2022-09-11T22:14:28.228Z,18.40
2022-09-11T22:21:24.632Z,18.50
2022-09-11T22:23:53.141Z,18.70
2022-09-11T22:26:23.230Z,18.50
2022-09-11T22:28:52.019Z,18.40
2022-09-11T22:31:24.246Z,18.40
2022-09-11T22:33:53.419Z,18.30
2022-09-11T22:36:24.826Z,18.20
2022-09-11T22:41:33.721Z,18.20
2022-09-11T22:44:00.929Z,18.20
2022-09-11T22:46:28.608Z,18.10
2022-09-11T22:48:56.790Z,18.00
2022-09-11T22:51:24.097Z,18.10
2022-09-11T22:53:51.518Z,18.10
2022-09-11T22:56:19.668Z,18.10
2022-09-11T23:02:48.191Z,17.90
2022-09-11T23:05:33.877Z,17.80
2022-09-11T23:08:01.677Z,18.00
2022-09-11T23:10:29.616Z,17.80
2022-09-11T23:12:57.298Z,17.80
2022-09-11T23:15:24.528Z,17.90
2022-09-11T23:17:53.607Z,17.90
2022-09-11T23:24:57.970Z,17.80
2022-09-11T23:27:25.708Z,17.90
2022-09-11T23:29:53.670Z,17.90
2022-09-11T23:32:21.419Z,17.80
2022-09-11T23:34:49.498Z,17.80
2022-09-11T23:37:17.439Z,17.80
2022-09-11T23:39:46.645Z,17.60
2022-09-11T23:42:15.998Z,17.70
2022-09-11T23:52:32.947Z,17.40
2022-09-11T23:55:00.747Z,17.50
2022-09-11T23:57:27.957Z,17.50
2022-09-11T23:59:55.798Z,17.50
